Back to Top

Language: 

My Weather Underground Personal Weather Station Historical Data with Graphs...

Delerius Weather Station Historical Data
Daily Summary for March 1, 2017 Units:  Metric    English   Both
« Previous Day
Next Day »
Daily Weekly Monthly Yearly Custom
  High: Low: Average:
Temperature: 8.9 °C 1.4 °C 4.6 °C
Dew Point: 4.2 °C 0.2 °C 2.2 °C
Humidity: 95 % 67 % 85 %
Wind Speed: 22.5 km/h 0 km/h 7.6 km/h
Wind Gust: 35.4 km/h - -
Wind:- - West
Pressure: 996.2 hPa 992.8 hPa -
Precipitation: 0 mm    
Historical Graphs
 
 
Tabular Data for March 1, 2017
Time Temperature Dew Point Pressure Wind Wind Speed Wind Gust Humidity Rainfall Rate (Hourly) solar Conditions
00:00 3.1 °C 1.9 °C 992.8 hPa WNW 9.7 km/h 12.9 km/h 92 % 0 mm 0 W/m2
00:05 3.1 °C 1.9 °C 992.8 hPa WNW 9.7 km/h 12.9 km/h 92 % 0 mm 0 W/m2
00:15 3 °C 1.8 °C 992.8 hPa WNW 8 km/h 11.3 km/h 92 % 0 mm 0 W/m2
00:25 2.9 °C 1.7 °C 992.8 hPa WNW 4.8 km/h 8 km/h 92 % 0 mm 0 W/m2
00:30 2.8 °C 1.7 °C 993.1 hPa WNW 3.2 km/h 4.8 km/h 92 % 0 mm 0 W/m2
00:35 2.7 °C 1.6 °C 993.1 hPa WNW 4.8 km/h 4.8 km/h 92 % 0 mm 0 W/m2
00:40 2.7 °C 1.5 °C 993.1 hPa WNW 4.8 km/h 4.8 km/h 92 % 0 mm 0 W/m2
00:45 2.7 °C 1.7 °C 993.1 hPa WNW 6.4 km/h 9.7 km/h 93 % 0 mm 0 W/m2
00:55 2.7 °C 1.7 °C 992.8 hPa NW 4.8 km/h 6.4 km/h 93 % 0 mm 0 W/m2
01:00 2.7 °C 1.7 °C 993.1 hPa WNW 4.8 km/h 9.7 km/h 93 % 0 mm 0 W/m2
01:05 2.7 °C 1.7 °C 993.5 hPa WNW 6.4 km/h 16.1 km/h 93 % 0 mm 0 W/m2
01:10 2.6 °C 1.6 °C 993.5 hPa WNW 8 km/h 8 km/h 93 % 0 mm 0 W/m2
01:15 2.6 °C 1.6 °C 993.8 hPa WNW 4.8 km/h 16.1 km/h 93 % 0 mm 0 W/m2
01:20 2.6 °C 1.6 °C 993.8 hPa WNW 6.4 km/h 16.1 km/h 93 % 0 mm 0 W/m2
01:30 2.5 °C 1.5 °C 993.8 hPa WNW 9.7 km/h 9.7 km/h 93 % 0 mm 0 W/m2
01:35 2.6 °C 1.6 °C 993.8 hPa WNW 8 km/h 16.1 km/h 93 % 0 mm 0 W/m2
01:40 2.6 °C 1.6 °C 993.8 hPa WNW 8 km/h 8 km/h 93 % 0 mm 0 W/m2
01:45 2.5 °C 1.5 °C 993.8 hPa WNW 6.4 km/h 16.1 km/h 93 % 0 mm 0 W/m2
01:50 2.4 °C 1.4 °C 993.8 hPa WNW 4.8 km/h 16.1 km/h 93 % 0 mm 0 W/m2
02:00 2.3 °C 1.3 °C 994.5 hPa WNW 4.8 km/h 4.8 km/h 93 % 0 mm 0 W/m2
02:05 2.3 °C 1.1 °C 994.5 hPa WNW 3.2 km/h 16.1 km/h 92 % 0 mm 0 W/m2
02:10 2.2 °C 1 °C 994.5 hPa Calm   16.1 km/h 92 % 0 mm 0 W/m2
02:15 2 °C 0.8 °C 994.5 hPa Calm   16.1 km/h 92 % 0 mm 0 W/m2
02:20 1.9 °C 0.7 °C 994.8 hPa Calm   16.1 km/h 92 % 0 mm 0 W/m2
02:30 1.8 °C 0.6 °C 994.8 hPa Calm   16.1 km/h 92 % 0 mm 0 W/m2
02:35 1.7 °C 0.7 °C 994.5 hPa Calm   16.1 km/h 93 % 0 mm 0 W/m2
02:40 1.6 °C 0.6 °C 994.5 hPa WNW 1.6 km/h 16.1 km/h 93 % 0 mm 0 W/m2
02:50 1.6 °C 0.6 °C 994.8 hPa WNW 1.6 km/h 1.6 km/h 93 % 0 mm 0 W/m2
02:55 1.5 °C 0.5 °C 994.5 hPa Calm   16.1 km/h 93 % 0 mm 0 W/m2
03:00 1.5 °C 0.5 °C 994.8 hPa WNW 1.6 km/h 1.6 km/h 93 % 0 mm 0 W/m2
03:10 1.4 °C 0.4 °C 994.5 hPa WNW 1.6 km/h 1.6 km/h 93 % 0 mm 0 W/m2
03:15 1.5 °C 0.7 °C 994.5 hPa West 1.6 km/h 16.1 km/h 94 % 0 mm 0 W/m2
03:20 1.6 °C 0.7 °C 994.1 hPa West 1.6 km/h 1.6 km/h 94 % 0 mm 0 W/m2
03:25 1.7 °C 0.8 °C 994.5 hPa West 1.6 km/h 16.1 km/h 94 % 0 mm 0 W/m2
03:30 1.6 °C 0.7 °C 994.5 hPa Calm   16.1 km/h 94 % 0 mm 0 W/m2
03:40 1.5 °C 0.5 °C 994.8 hPa Calm   16.1 km/h 93 % 0 mm 0 W/m2
03:45 1.6 °C 0.7 °C 995.1 hPa SSW 3.2 km/h 16.1 km/h 94 % 0 mm 0 W/m2
03:50 1.8 °C 0.9 °C 995.1 hPa SSW 4.8 km/h 16.1 km/h 94 % 0 mm 0 W/m2
03:55 2.2 °C 1.4 °C 995.1 hPa SSW 8 km/h 16.1 km/h 95 % 0 mm 0 W/m2
04:00 2.3 °C 1.4 °C 995.1 hPa West 8 km/h 8 km/h 94 % 0 mm 0 W/m2
04:05 2.3 °C 1.3 °C 995.1 hPa West 4.8 km/h 16.1 km/h 93 % 0 mm 0 W/m2
04:15 2.4 °C 1.4 °C 995.1 hPa West 4.8 km/h 16.1 km/h 93 % 0 mm 0 W/m2
04:20 2.4 °C 1.4 °C 995.1 hPa WSW 4.8 km/h 16.1 km/h 93 % 0 mm 0 W/m2
04:25 2.4 °C 1.4 °C 995.1 hPa WSW 3.2 km/h 16.1 km/h 93 % 0 mm 0 W/m2
04:30 2.4 °C 1.4 °C 995.1 hPa WSW 1.6 km/h 16.1 km/h 93 % 0 mm 0 W/m2
04:35 2.4 °C 1.4 °C 995.1 hPa SSW 1.6 km/h 16.1 km/h 93 % 0 mm 0 W/m2
04:45 2.6 °C 1.6 °C 995.1 hPa SW 3.2 km/h 16.1 km/h 93 % 0 mm 0 W/m2
04:50 2.7 °C 1.7 °C 995.1 hPa WSW 4.8 km/h 16.1 km/h 93 % 0 mm 0 W/m2
04:55 2.8 °C 1.8 °C 995.1 hPa SW 6.4 km/h 16.1 km/h 93 % 0 mm 0 W/m2
05:00 2.8 °C 1.7 °C 995.1 hPa SW 4.8 km/h 4.8 km/h 92 % 0 mm 0 W/m2
05:05 2.8 °C 1.6 °C 995.1 hPa SW 4.8 km/h 8 km/h 92 % 0 mm 0 W/m2
05:10 2.7 °C 1.6 °C 995.1 hPa SW 4.8 km/h 4.8 km/h 92 % 0 mm 0 W/m2
05:20 2.6 °C 1.4 °C 995.1 hPa WNW 6.4 km/h 16.1 km/h 92 % 0 mm 0 W/m2
05:25 2.6 °C 1.4 °C 995.1 hPa WNW 6.4 km/h 16.1 km/h 92 % 0 mm 0 W/m2
05:30 2.5 °C 1.3 °C 995.1 hPa WNW 6.4 km/h 16.1 km/h 92 % 0 mm 0 W/m2
05:35 2.4 °C 1.3 °C 995.1 hPa West 8 km/h 16.1 km/h 92 % 0 mm 0 W/m2
05:40 2.5 °C 1.3 °C 995.1 hPa West 9.7 km/h 16.1 km/h 92 % 0 mm 0 W/m2
05:50 2.9 °C 1.7 °C 995.5 hPa West 11.3 km/h 16.1 km/h 92 % 0 mm 0 W/m2
05:55 2.9 °C 1.8 °C 995.5 hPa WSW 11.3 km/h 16.1 km/h 92 % 0 mm 0 W/m2
06:00 3.1 °C 1.9 °C 995.5 hPa WNW 12.9 km/h 19.3 km/h 92 % 0 mm 0 W/m2
06:05 3.2 °C 2 °C 995.5 hPa West 16.1 km/h 19.3 km/h 92 % 0 mm 0 W/m2
06:10 3.2 °C 1.9 °C 995.5 hPa WSW 16.1 km/h 16.1 km/h 91 % 0 mm 0 W/m2
06:20 3.2 °C 1.8 °C 995.5 hPa WNW 12.9 km/h 16.1 km/h 91 % 0 mm 0 W/m2
06:25 3.2 °C 2 °C 995.5 hPa West 14.5 km/h 17.7 km/h 92 % 0 mm 0 W/m2
06:35 3.1 °C 1.9 °C 995.5 hPa West 16.1 km/h 16.1 km/h 92 % 0 mm 0 W/m2
06:40 3.1 °C 1.9 °C 995.5 hPa West 14.5 km/h 14.5 km/h 92 % 0 mm 0 W/m2
06:45 3.1 °C 1.9 °C 995.5 hPa West 14.5 km/h 16.1 km/h 92 % 0 mm 0 W/m2
06:50 3.1 °C 1.9 °C 995.5 hPa West 14.5 km/h 16.1 km/h 92 % 0 mm 0 W/m2
07:00 3.1 °C 1.9 °C 995.8 hPa West 12.9 km/h 20.9 km/h 92 % 0 mm 7 W/m2
07:05 3.1 °C 1.9 °C 995.8 hPa West 12.9 km/h 20.9 km/h 92 % 0 mm 11 W/m2
07:10 3.1 °C 1.9 °C 995.8 hPa West 12.9 km/h 12.9 km/h 92 % 0 mm 18 W/m2
07:15 3 °C 1.8 °C 995.8 hPa WSW 8 km/h 16.1 km/h 92 % 0 mm 21 W/m2
07:20 2.9 °C 1.8 °C 995.8 hPa WSW 3.2 km/h 3.2 km/h 92 % 0 mm 40 W/m2
07:30 2.9 °C 1.7 °C 995.8 hPa Calm   16.1 km/h 92 % 0 mm 90 W/m2
07:35 3.1 °C 1.9 °C 995.8 hPa Calm   16.1 km/h 92 % 0 mm 97 W/m2
07:40 3.2 °C 2.1 °C 995.8 hPa WSW 1.6 km/h 16.1 km/h 92 % 0 mm 70 W/m2
07:45 3.3 °C 2 °C 995.8 hPa WSW 3.2 km/h 16.1 km/h 91 % 0 mm 74 W/m2
07:50 3.4 °C 2.1 °C 995.8 hPa WSW 3.2 km/h 16.1 km/h 91 % 0 mm 58 W/m2
07:55 3.4 °C 2.1 °C 995.5 hPa WSW 3.2 km/h 16.1 km/h 91 % 0 mm 120 W/m2
08:05 3.7 °C 2.2 °C 995.8 hPa WSW 3.2 km/h 16.1 km/h 90 % 0 mm 54 W/m2
08:10 3.7 °C 2.2 °C 995.8 hPa WSW 3.2 km/h 3.2 km/h 90 % 0 mm 60 W/m2
08:15 3.8 °C 2.1 °C 995.8 hPa WSW 3.2 km/h 16.1 km/h 89 % 0 mm 65 W/m2
08:25 3.8 °C 2.1 °C 995.8 hPa SW 3.2 km/h 16.1 km/h 89 % 0 mm 74 W/m2
08:30 3.8 °C 2.2 °C 995.8 hPa SW 3.2 km/h 16.1 km/h 89 % 0 mm 74 W/m2
08:40 3.9 °C 2.3 °C 995.8 hPa WSW 4.8 km/h 16.1 km/h 89 % 0 mm 72 W/m2
08:45 4 °C 2.3 °C 995.8 hPa SW 3.2 km/h 16.1 km/h 89 % 0 mm 91 W/m2
08:50 4.1 °C 2.4 °C 996.2 hPa West 4.8 km/h 16.1 km/h 89 % 0 mm 102 W/m2
08:55 4.2 °C 2.3 °C 995.8 hPa SW 6.4 km/h 16.1 km/h 88 % 0 mm 104 W/m2
09:05 4.4 °C 2.6 °C 995.8 hPa SW 4.8 km/h 16.1 km/h 88 % 0 mm 121 W/m2
09:15 4.6 °C 2.8 °C 995.8 hPa Calm   16.1 km/h 88 % 0 mm 155 W/m2
09:20 4.8 °C 2.9 °C 995.8 hPa Calm   16.1 km/h 88 % 0 mm 146 W/m2
09:25 4.9 °C 2.9 °C 995.8 hPa SW 1.6 km/h 16.1 km/h 87 % 0 mm 139 W/m2
09:30 5 °C 3 °C 995.8 hPa SW 1.6 km/h 1.6 km/h 87 % 0 mm 134 W/m2
09:35 5.1 °C 2.9 °C 995.8 hPa SW 1.6 km/h 4.8 km/h 86 % 0 mm 183 W/m2
09:45 5.3 °C 3 °C 995.8 hPa Calm   16.1 km/h 85 % 0 mm 162 W/m2
09:50 5.5 °C 3.2 °C 996.2 hPa Calm   16.1 km/h 85 % 0 mm 162 W/m2
09:55 5.6 °C 3.3 °C 995.8 hPa SSW 1.6 km/h 16.1 km/h 85 % 0 mm 176 W/m2
10:00 5.7 °C 3.4 °C 996.2 hPa WSW 4.8 km/h 16.1 km/h 85 % 0 mm 206 W/m2
10:05 5.9 °C 3.6 °C 996.2 hPa West 8 km/h 16.1 km/h 85 % 0 mm 223 W/m2
10:10 6.1 °C 3.7 °C 995.8 hPa WSW 8 km/h 16.1 km/h 85 % 0 mm 237 W/m2
10:20 6.3 °C 3.6 °C 996.2 hPa West 12.9 km/h 12.9 km/h 83 % 0 mm 239 W/m2
10:25 6.3 °C 3.7 °C 996.2 hPa West 9.7 km/h 16.1 km/h 83 % 0 mm 214 W/m2
10:30 6.4 °C 3.8 °C 996.2 hPa WSW 11.3 km/h 17.7 km/h 83 % 0 mm 225 W/m2
10:40 6.6 °C 3.9 °C 995.8 hPa West 12.9 km/h 17.7 km/h 83 % 0 mm 272 W/m2
10:45 6.6 °C 3.8 °C 995.8 hPa WSW 12.9 km/h 17.7 km/h 82 % 0 mm 283 W/m2
10:55 6.8 °C 3.6 °C 995.8 hPa West 17.7 km/h 20.9 km/h 80 % 0 mm 283 W/m2
11:00 6.9 °C 3.7 °C 995.8 hPa WSW 17.7 km/h 35.4 km/h 80 % 0 mm 241 W/m2
11:05 6.9 °C 3.3 °C 995.8 hPa West 20.9 km/h 35.4 km/h 78 % 0 mm 274 W/m2
11:10 6.9 °C 3.6 °C 995.8 hPa West 19.3 km/h 29 km/h 79 % 0 mm 311 W/m2
11:15 7 °C 3.6 °C 995.8 hPa WNW 17.7 km/h 29 km/h 79 % 0 mm 295 W/m2
11:25 7.2 °C 3.7 °C 995.5 hPa West 16.1 km/h 19.3 km/h 78 % 0 mm 390 W/m2
11:30 7.4 °C 3.5 °C 995.8 hPa WSW 17.7 km/h 17.7 km/h 76 % 0 mm 381 W/m2
11:35 7.6 °C 3.6 °C 995.5 hPa WNW 17.7 km/h 17.7 km/h 76 % 0 mm 378 W/m2
11:40 7.7 °C 3.5 °C 995.5 hPa West 17.7 km/h 19.3 km/h 75 % 0 mm 338 W/m2
11:45 7.7 °C 3.3 °C 995.5 hPa West 19.3 km/h 19.3 km/h 74 % 0 mm 250 W/m2
11:50 7.4 °C 3.3 °C 995.5 hPa WSW 20.9 km/h 29 km/h 75 % 0 mm 221 W/m2
12:00 7.2 °C 3.4 °C 995.5 hPa WSW 19.3 km/h 19.3 km/h 77 % 0 mm 260 W/m2
12:05 7.2 °C 3.4 °C 995.5 hPa SW 16.1 km/h 22.5 km/h 77 % 0 mm 241 W/m2
12:15 7.3 °C 3.4 °C 995.5 hPa West 19.3 km/h 32.2 km/h 76 % 0 mm 316 W/m2
12:20 7.5 °C 3.3 °C 995.5 hPa West 19.3 km/h 20.9 km/h 75 % 0 mm 332 W/m2
12:25 7.6 °C 3.7 °C 995.5 hPa West 17.7 km/h 20.9 km/h 76 % 0 mm 462 W/m2
12:35 7.9 °C 3.7 °C 995.1 hPa WNW 16.1 km/h 17.7 km/h 75 % 0 mm 257 W/m2
12:40 7.9 °C 3.9 °C 995.1 hPa WSW 14.5 km/h 16.1 km/h 76 % 0 mm 232 W/m2
12:45 7.9 °C 3.8 °C 995.1 hPa WSW 16.1 km/h 17.7 km/h 75 % 0 mm 264 W/m2
12:50 8.1 °C 3.9 °C 995.5 hPa West 16.1 km/h 16.1 km/h 75 % 0 mm 552 W/m2
12:55 8.3 °C 4.2 °C 995.1 hPa West 16.1 km/h 16.1 km/h 75 % 0 mm 598 W/m2
13:05 8.4 °C 3.8 °C 995.1 hPa SW 16.1 km/h 17.7 km/h 73 % 0 mm 204 W/m2
13:10 8.4 °C 3.8 °C 995.1 hPa West 17.7 km/h 19.3 km/h 73 % 0 mm 624 W/m2
13:15 8.6 °C 3.7 °C 995.1 hPa SW 20.9 km/h 20.9 km/h 71 % 0 mm 624 W/m2
13:20 8.8 °C 3.8 °C 995.1 hPa West 22.5 km/h 22.5 km/h 71 % 0 mm 700 W/m2
13:25 8.9 °C 3.7 °C 995.1 hPa West 19.3 km/h 24.1 km/h 70 % 0 mm 185 W/m2
13:35 8.4 °C 3.4 °C 995.1 hPa West 19.3 km/h 25.7 km/h 71 % 0 mm 171 W/m2
13:40 8.3 °C 3.4 °C 995.1 hPa West 16.1 km/h 17.7 km/h 71 % 0 mm 174 W/m2
13:50 8 °C 3.8 °C 995.5 hPa West 22.5 km/h 22.5 km/h 75 % 0 mm 88 W/m2
13:55 7.4 °C 3.8 °C 995.1 hPa WSW 22.5 km/h 22.5 km/h 78 % 0 mm 107 W/m2
14:00 6.9 °C 3.7 °C 995.1 hPa WSW 19.3 km/h 19.3 km/h 80 % 0 mm 155 W/m2
14:05 6.7 °C 3.7 °C 995.1 hPa WSW 14.5 km/h 19.3 km/h 81 % 0 mm 114 W/m2
14:15 6.7 °C 3.7 °C 994.8 hPa West 12.9 km/h 17.7 km/h 81 % 0 mm 320 W/m2
14:20 6.9 °C 3.6 °C 994.8 hPa SW 14.5 km/h 14.5 km/h 79 % 0 mm 127 W/m2
14:25 7.1 °C 3.7 °C 994.8 hPa West 14.5 km/h 16.1 km/h 79 % 0 mm 165 W/m2
14:30 7.1 °C 3.6 °C 994.8 hPa SW 12.9 km/h 12.9 km/h 78 % 0 mm 174 W/m2
14:35 7.2 °C 3.7 °C 994.8 hPa WSW 12.9 km/h 16.1 km/h 78 % 0 mm 148 W/m2
14:45 7.4 °C 3.6 °C 994.8 hPa West 12.9 km/h 16.1 km/h 77 % 0 mm 88 W/m2
14:50 7.4 °C 3.4 °C 994.8 hPa WSW 12.9 km/h 12.9 km/h 76 % 0 mm 77 W/m2
14:55 7.3 °C 3.2 °C 994.8 hPa WSW 14.5 km/h 14.5 km/h 75 % 0 mm 91 W/m2
15:00 7.3 °C 3.2 °C 994.8 hPa West 12.9 km/h 12.9 km/h 75 % 0 mm 76 W/m2
15:05 7.3 °C 3.2 °C 994.8 hPa WNW 11.3 km/h 16.1 km/h 75 % 0 mm 98 W/m2
15:15 7.6 °C 3.4 °C 994.8 hPa WSW 9.7 km/h 16.1 km/h 75 % 0 mm 190 W/m2
15:20 7.8 °C 3.1 °C 994.8 hPa West 11.3 km/h 20.9 km/h 72 % 0 mm 320 W/m2
15:30 8 °C 3.1 °C 994.5 hPa WSW 12.9 km/h 16.1 km/h 71 % 0 mm 107 W/m2
15:35 8 °C 3.3 °C 994.5 hPa WSW 11.3 km/h 20.9 km/h 72 % 0 mm 178 W/m2
15:40 8.1 °C 3.2 °C 994.5 hPa WSW 11.3 km/h 11.3 km/h 71 % 0 mm 243 W/m2
15:45 8.2 °C 2.7 °C 994.5 hPa WSW 14.5 km/h 14.5 km/h 68 % 0 mm 118 W/m2
15:55 8 °C 2.2 °C 994.5 hPa WSW 16.1 km/h 16.1 km/h 67 % 0 mm 81 W/m2
16:00 7.9 °C 2.6 °C 994.5 hPa SW 14.5 km/h 16.1 km/h 69 % 0 mm 113 W/m2
16:05 7.8 °C 2.5 °C 994.5 hPa West 12.9 km/h 16.1 km/h 69 % 0 mm 102 W/m2
16:10 7.8 °C 2.7 °C 994.5 hPa West 11.3 km/h 16.1 km/h 70 % 0 mm 120 W/m2
16:15 7.8 °C 2.7 °C 994.5 hPa WSW 9.7 km/h 16.1 km/h 70 % 0 mm 130 W/m2
16:25 7.9 °C 2.6 °C 994.1 hPa WNW 14.5 km/h 20.9 km/h 69 % 0 mm 88 W/m2
16:30 7.9 °C 2.8 °C 994.1 hPa West 14.5 km/h 14.5 km/h 70 % 0 mm 83 W/m2
16:35 7.8 °C 2.7 °C 994.1 hPa West 12.9 km/h 16.1 km/h 70 % 0 mm 84 W/m2
16:40 7.8 °C 2.9 °C 994.1 hPa WNW 11.3 km/h 11.3 km/h 71 % 0 mm 84 W/m2
16:45 7.8 °C 2.8 °C 994.1 hPa West 9.7 km/h 16.1 km/h 71 % 0 mm 76 W/m2
16:55 7.7 °C 3 °C 994.1 hPa West 8 km/h 16.1 km/h 72 % 0 mm 76 W/m2
17:05 7.6 °C 3.1 °C 994.5 hPa WNW 8 km/h 16.1 km/h 73 % 0 mm 32 W/m2
17:10 7.4 °C 2.7 °C 994.5 hPa WSW 11.3 km/h 11.3 km/h 72 % 0 mm 25 W/m2
17:15 7.3 °C 2.8 °C 994.5 hPa West 11.3 km/h 16.1 km/h 73 % 0 mm 19 W/m2
17:20 7.2 °C 2.7 °C 994.5 hPa West 8 km/h 16.1 km/h 73 % 0 mm 18 W/m2
17:25 7.1 °C 2.8 °C 994.5 hPa West 6.4 km/h 16.1 km/h 74 % 0 mm 14 W/m2
17:30 7 °C 2.9 °C 994.5 hPa West 6.4 km/h 16.1 km/h 75 % 0 mm 11 W/m2
17:35 6.9 °C 2.8 °C 994.5 hPa WNW 6.4 km/h 16.1 km/h 75 % 0 mm 9 W/m2
17:40 6.7 °C 2.6 °C 994.5 hPa WNW 8 km/h 16.1 km/h 75 % 0 mm 5 W/m2
17:45 6.6 °C 2.6 °C 994.5 hPa West 9.7 km/h 16.1 km/h 76 % 0 mm 0 W/m2
17:50 6.5 °C 2.6 °C 994.5 hPa WSW 9.7 km/h 9.7 km/h 76 % 0 mm 0 W/m2
17:55 6.4 °C 2.4 °C 994.5 hPa West 9.7 km/h 16.1 km/h 76 % 0 mm 0 W/m2
18:05 6.2 °C 2.5 °C 994.5 hPa WSW 6.4 km/h 16.1 km/h 77 % 0 mm 0 W/m2
18:10 6.1 °C 2.4 °C 994.8 hPa West 6.4 km/h 6.4 km/h 77 % 0 mm 0 W/m2
18:15 6.1 °C 2.3 °C 994.5 hPa West 4.8 km/h 8 km/h 77 % 0 mm 0 W/m2
18:25 5.9 °C 2.3 °C 994.5 hPa West 4.8 km/h 16.1 km/h 78 % 0 mm 0 W/m2
18:30 5.8 °C 2.3 °C 994.5 hPa West 4.8 km/h 4.8 km/h 78 % 0 mm 0 W/m2
18:40 5.7 °C 2.1 °C 994.5 hPa West 1.6 km/h 1.6 km/h 78 % 0 mm 0 W/m2
18:45 5.6 °C 2.3 °C 994.5 hPa Calm   16.1 km/h 79 % 0 mm 0 W/m2
18:50 5.5 °C 2.2 °C 994.5 hPa Calm   16.1 km/h 79 % 0 mm 0 W/m2
18:55 5.4 °C 1.8 °C 994.5 hPa Calm   16.1 km/h 78 % 0 mm 0 W/m2
19:00 5.2 °C 1.9 °C 994.1 hPa Calm   16.1 km/h 79 % 0 mm 0 W/m2
19:05 5.1 °C 1.7 °C 994.1 hPa Calm   16.1 km/h 79 % 0 mm 0 W/m2
19:10 4.9 °C 1.7 °C 994.1 hPa Calm   16.1 km/h 80 % 0 mm 0 W/m2
19:15 4.7 °C 1.6 °C 994.1 hPa Calm   16.1 km/h 80 % 0 mm 0 W/m2
19:20 4.5 °C 1.5 °C 994.5 hPa Calm   16.1 km/h 81 % 0 mm 0 W/m2
19:25 4.3 °C 1.5 °C 994.1 hPa Calm   16.1 km/h 82 % 0 mm 0 W/m2
19:30 4.1 °C 1.3 °C 994.1 hPa Calm   16.1 km/h 82 % 0 mm 0 W/m2
19:40 3.8 °C 1.2 °C 994.1 hPa Calm   16.1 km/h 83 % 0 mm 0 W/m2
19:45 3.7 °C 1.3 °C 994.1 hPa Calm   16.1 km/h 84 % 0 mm 0 W/m2
19:55 3.5 °C 1.2 °C 994.1 hPa Calm   16.1 km/h 85 % 0 mm 0 W/m2
20:00 3.4 °C 1.1 °C 994.1 hPa Calm   16.1 km/h 85 % 0 mm 0 W/m2
20:05 3.3 °C 1 °C 994.1 hPa Calm   16.1 km/h 85 % 0 mm 0 W/m2
20:10 3.2 °C 1.1 °C 994.1 hPa Calm   16.1 km/h 86 % 0 mm 0 W/m2
20:20 3.1 °C 1 °C 993.8 hPa Calm   16.1 km/h 86 % 0 mm 0 W/m2
20:25 3.1 °C 0.9 °C 993.8 hPa Calm   16.1 km/h 86 % 0 mm 0 W/m2
20:30 3 °C 0.9 °C 993.8 hPa Calm   16.1 km/h 86 % 0 mm 0 W/m2
20:35 2.9 °C 0.8 °C 993.8 hPa Calm   16.1 km/h 86 % 0 mm 0 W/m2
20:40 2.9 °C 0.8 °C 993.8 hPa Calm   16.1 km/h 86 % 0 mm 0 W/m2
20:45 2.8 °C 0.9 °C 993.8 hPa Calm   16.1 km/h 87 % 0 mm 0 W/m2
20:55 2.7 °C 0.7 °C 993.8 hPa Calm   16.1 km/h 87 % 0 mm 0 W/m2
21:00 2.5 °C 0.4 °C 993.8 hPa Calm   16.1 km/h 86 % 0 mm 0 W/m2
21:05 2.3 °C 0.4 °C 993.8 hPa Calm   16.1 km/h 87 % 0 mm 0 W/m2
21:10 2.2 °C 0.2 °C 993.8 hPa Calm   16.1 km/h 87 % 0 mm 0 W/m2
21:20 2.1 °C 0.3 °C 993.8 hPa West 1.6 km/h 1.6 km/h 88 % 0 mm 0 W/m2
21:30 2.1 °C 0.4 °C 993.8 hPa Calm   16.1 km/h 89 % 0 mm 0 W/m2
21:35 2.1 °C 0.4 °C 993.8 hPa West 1.6 km/h 16.1 km/h 89 % 0 mm 0 W/m2
21:40 2.1 °C 0.7 °C 993.8 hPa WSW 3.2 km/h 16.1 km/h 90 % 0 mm 0 W/m2
21:45 2.4 °C 0.9 °C 993.8 hPa SW 6.4 km/h 16.1 km/h 90 % 0 mm 0 W/m2
21:50 2.6 °C 1.1 °C 993.8 hPa SW 4.8 km/h 4.8 km/h 90 % 0 mm 0 W/m2
22:00 2.9 °C 1.4 °C 993.5 hPa SW 3.2 km/h 16.1 km/h 90 % 0 mm 0 W/m2
22:05 3.2 °C 1.7 °C 993.5 hPa WSW 6.4 km/h 16.1 km/h 90 % 0 mm 0 W/m2
22:10 3.4 °C 1.8 °C 993.5 hPa SW 6.4 km/h 6.4 km/h 89 % 0 mm 0 W/m2
22:15 3.6 °C 1.9 °C 993.5 hPa WSW 4.8 km/h 9.7 km/h 89 % 0 mm 0 W/m2
22:20 3.7 °C 2 °C 993.5 hPa WSW 3.2 km/h 16.1 km/h 89 % 0 mm 0 W/m2
22:25 3.7 °C 2.1 °C 993.5 hPa WSW 3.2 km/h 16.1 km/h 89 % 0 mm 0 W/m2
22:35 3.8 °C 2.1 °C 993.1 hPa WSW 1.6 km/h 3.2 km/h 89 % 0 mm 0 W/m2
22:40 3.8 °C 2.2 °C 993.1 hPa WSW 3.2 km/h 16.1 km/h 89 % 0 mm 0 W/m2
22:50 3.8 °C 2.2 °C 993.1 hPa WSW 3.2 km/h 3.2 km/h 89 % 0 mm 0 W/m2
22:55 3.9 °C 2.2 °C 993.1 hPa WNW 3.2 km/h 6.4 km/h 89 % 0 mm 0 W/m2
23:00 3.9 °C 2.3 °C 993.5 hPa WNW 6.4 km/h 16.1 km/h 89 % 0 mm 0 W/m2
23:10 3.9 °C 2.4 °C 993.5 hPa West 8 km/h 16.1 km/h 90 % 0 mm 0 W/m2
23:15 3.9 °C 2.4 °C 993.5 hPa West 8 km/h 16.1 km/h 90 % 0 mm 0 W/m2
23:20 3.9 °C 2.4 °C 993.5 hPa West 4.8 km/h 16.1 km/h 90 % 0 mm 0 W/m2
23:25 3.9 °C 2.4 °C 993.5 hPa West 4.8 km/h 16.1 km/h 90 % 0 mm 0 W/m2
23:30 3.9 °C 2.6 °C 993.5 hPa WSW 4.8 km/h 16.1 km/h 91 % 0 mm 0 W/m2
23:40 3.8 °C 2.5 °C 993.1 hPa WSW 8 km/h 8 km/h 91 % 0 mm 0 W/m2
23:45 3.8 °C 2.4 °C 993.1 hPa West 8 km/h 11.3 km/h 91 % 0 mm 0 W/m2
23:50 3.8 °C 2.4 °C 993.5 hPa WNW 9.7 km/h 16.1 km/h 91 % 0 mm 0 W/m2
23:55 3.7 °C 2.4 °C 993.5 hPa WSW 12.9 km/h 16.1 km/h 91 % 0 mm 0 W/m2
Delerius-Weather
Compliments of Weather Underground - 2 mb

Data updates at regular intervals.